createdAt,value
2018-09-28T00:00:24.848Z,13.00
2018-09-28T00:02:53.358Z,13.10
2018-09-28T00:05:21.888Z,14.87
2018-09-28T00:07:50.398Z,13.20
2018-09-28T00:10:18.927Z,13.87
2018-09-28T00:12:47.507Z,13.10
2018-09-28T00:15:16.066Z,13.87
2018-09-28T00:17:44.565Z,13.70
2018-09-28T00:20:13.114Z,12.90
2018-09-28T00:22:41.617Z,15.07
2018-09-28T00:25:10.145Z,14.63
2018-09-28T00:27:38.650Z,13.20
2018-09-28T00:30:07.458Z,16.80
2018-09-28T00:32:35.987Z,18.67
2018-09-28T00:35:04.641Z,17.87
2018-09-28T00:37:33.147Z,19.00
2018-09-28T00:40:01.665Z,17.80
2018-09-28T00:42:30.183Z,19.63
2018-09-28T00:44:58.706Z,18.17
2018-09-28T00:47:27.213Z,17.07
2018-09-28T00:49:55.785Z,18.40
2018-09-28T00:52:24.300Z,17.00
2018-09-28T00:54:52.813Z,20.07
2018-09-28T00:57:21.337Z,17.20
2018-09-28T00:59:49.839Z,18.60
2018-09-28T01:02:18.362Z,17.13
2018-09-28T01:04:46.863Z,15.87
2018-09-28T01:07:15.393Z,15.53
2018-09-28T01:09:43.896Z,14.30
2018-09-28T01:12:12.431Z,14.57
2018-09-28T01:14:40.935Z,12.60
2018-09-28T01:17:09.479Z,8.53
2018-09-28T01:19:37.984Z,10.10
2018-09-28T01:22:06.516Z,7.43
2018-09-28T01:24:35.004Z,7.60
2018-09-28T01:27:03.528Z,5.57
2018-09-28T01:29:32.055Z,5.80
2018-09-28T01:32:00.592Z,3.60
2018-09-28T01:34:29.085Z,2.47
2018-09-28T01:36:57.602Z,2.63
2018-09-28T01:39:26.094Z,3.10
2018-09-28T01:41:54.613Z,2.47
2018-09-28T01:44:23.102Z,2.77
2018-09-28T01:46:51.623Z,2.27
2018-09-28T01:49:20.132Z,2.30
2018-09-28T01:51:48.653Z,2.70
2018-09-28T01:54:17.150Z,2.87
2018-09-28T01:56:45.671Z,3.00
2018-09-28T01:59:14.175Z,3.00
2018-09-28T02:01:42.693Z,3.13
2018-09-28T02:04:11.177Z,2.73
2018-09-28T02:06:39.703Z,3.20
2018-09-28T02:09:08.612Z,3.00
2018-09-28T02:11:37.122Z,2.83
2018-09-28T02:14:05.631Z,2.53
2018-09-28T02:16:34.152Z,2.57
2018-09-28T02:19:02.668Z,2.60
2018-09-28T02:21:31.223Z,2.60
2018-09-28T02:23:59.719Z,2.47
2018-09-28T02:26:28.238Z,2.10
2018-09-28T02:28:56.731Z,2.10
2018-09-28T02:31:25.247Z,2.50
2018-09-28T02:33:53.761Z,2.43
2018-09-28T02:36:22.281Z,2.63
2018-09-28T02:38:50.812Z,2.33
2018-09-28T02:41:19.327Z,1.90
2018-09-28T02:43:47.838Z,1.90
2018-09-28T02:46:16.355Z,1.90
2018-09-28T02:48:44.850Z,1.13
2018-09-28T02:51:13.387Z,1.13
2018-09-28T02:53:41.906Z,1.00
2018-09-28T02:56:10.401Z,1.00
2018-09-28T02:58:38.924Z,1.53
2018-09-28T03:01:07.663Z,0.97
2018-09-28T03:03:36.222Z,0.93
2018-09-28T03:06:04.788Z,1.00
2018-09-28T03:08:33.312Z,1.20
2018-09-28T03:11:01.808Z,0.97
2018-09-28T03:13:30.349Z,0.83
2018-09-28T03:15:58.847Z,0.80
2018-09-28T03:18:27.374Z,1.03
2018-09-28T03:20:55.862Z,0.83
2018-09-28T03:23:24.388Z,0.80
2018-09-28T03:25:53.035Z,1.10
2018-09-28T03:28:21.546Z,0.90
2018-09-28T03:30:50.055Z,1.30
2018-09-28T03:33:18.626Z,0.90
2018-09-28T03:35:47.138Z,1.77
2018-09-28T03:38:15.702Z,1.00
2018-09-28T03:40:44.277Z,1.20
2018-09-28T03:43:12.769Z,0.90
2018-09-28T03:45:41.272Z,1.10
2018-09-28T03:48:09.788Z,0.60
2018-09-28T03:50:38.362Z,0.80
2018-09-28T03:53:06.895Z,1.00
2018-09-28T03:55:35.390Z,1.13
2018-09-28T03:58:03.921Z,1.30
2018-09-28T04:00:32.428Z,1.10
2018-09-28T04:03:00.971Z,1.03
2018-09-28T04:05:29.470Z,1.43
2018-09-28T04:07:57.976Z,1.10
2018-09-28T04:10:26.482Z,1.07
2018-09-28T04:12:54.989Z,1.30
2018-09-28T04:15:23.478Z,1.03
2018-09-28T04:17:52.103Z,1.33
2018-09-28T04:20:20.611Z,1.53
2018-09-28T04:22:49.128Z,1.20
2018-09-28T04:25:17.621Z,1.67
2018-09-28T04:27:46.136Z,1.00
2018-09-28T04:30:14.649Z,1.30
2018-09-28T04:32:43.195Z,1.30
2018-09-28T04:35:11.692Z,1.10
2018-09-28T04:37:40.210Z,1.67
2018-09-28T04:40:08.734Z,1.33
2018-09-28T04:42:37.264Z,1.30
2018-09-28T04:45:05.955Z,1.37
2018-09-28T04:47:34.502Z,1.30
2018-09-28T04:50:02.989Z,1.43
2018-09-28T04:52:31.502Z,1.43
2018-09-28T04:55:00.042Z,1.63
2018-09-28T04:57:28.537Z,1.60
2018-09-28T04:59:57.061Z,1.80
2018-09-28T05:02:25.569Z,1.50
2018-09-28T05:04:54.096Z,1.57
2018-09-28T05:07:22.588Z,2.00
2018-09-28T05:09:51.109Z,1.27
2018-09-28T05:12:19.602Z,1.80
2018-09-28T05:14:48.120Z,1.33
2018-09-28T05:17:16.695Z,2.27
2018-09-28T05:19:45.221Z,1.80
2018-09-28T05:22:13.739Z,1.90
2018-09-28T05:24:42.316Z,1.90
2018-09-28T05:27:10.889Z,1.50
2018-09-28T05:29:39.519Z,1.23
2018-09-28T05:32:08.160Z,1.67
2018-09-28T05:34:36.621Z,1.90
2018-09-28T05:37:05.491Z,2.00
2018-09-28T05:39:34.074Z,1.70
2018-09-28T05:42:02.570Z,1.57
2018-09-28T05:44:31.093Z,2.00
2018-09-28T05:46:59.594Z,2.00
2018-09-28T05:49:28.222Z,2.40
2018-09-28T05:51:56.743Z,1.60
2018-09-28T05:54:25.330Z,1.67
2018-09-28T05:56:53.823Z,2.70
2018-09-28T05:59:26.824Z,1.30
2018-09-28T06:02:00.425Z,1.50
2018-09-28T06:04:34.213Z,1.67
2018-09-28T06:07:02.735Z,2.20
2018-09-28T06:09:31.292Z,2.03
2018-09-28T06:11:59.789Z,2.23
2018-09-28T06:14:28.329Z,2.37
2018-09-28T06:16:56.830Z,2.50
2018-09-28T06:19:25.482Z,2.00
2018-09-28T06:21:53.986Z,1.87
2018-09-28T06:24:22.540Z,1.53
2018-09-28T06:26:51.052Z,2.00
2018-09-28T06:29:19.577Z,2.10
2018-09-28T06:31:48.079Z,2.27
2018-09-28T06:34:16.922Z,2.03
2018-09-28T06:36:45.493Z,2.00
2018-09-28T06:39:14.038Z,2.20
2018-09-28T06:41:42.556Z,1.60
2018-09-28T06:44:11.126Z,1.93
2018-09-28T06:46:39.936Z,1.60
2018-09-28T06:49:08.554Z,2.30
2018-09-28T06:51:37.062Z,2.17
2018-09-28T06:54:05.618Z,1.63
2018-09-28T06:56:34.133Z,2.37
2018-09-28T06:59:02.685Z,2.60
2018-09-28T07:01:31.191Z,1.57
2018-09-28T07:03:59.684Z,1.47
2018-09-28T07:06:28.221Z,1.70
2018-09-28T07:08:56.735Z,1.13
2018-09-28T07:11:25.243Z,1.57
2018-09-28T07:13:53.731Z,1.60
2018-09-28T07:16:22.281Z,1.60
2018-09-28T07:18:50.786Z,1.40
2018-09-28T07:21:19.305Z,1.67
2018-09-28T07:23:47.855Z,1.03
2018-09-28T07:26:16.366Z,1.07
2018-09-28T07:28:44.864Z,1.40
2018-09-28T07:31:13.399Z,1.50
2018-09-28T07:33:41.923Z,1.00
2018-09-28T07:36:10.548Z,1.23
2018-09-28T07:38:39.019Z,2.00
2018-09-28T07:41:07.685Z,1.43
2018-09-28T07:43:36.176Z,0.80
2018-09-28T07:46:04.822Z,1.33
2018-09-28T07:48:33.310Z,1.17
2018-09-28T07:51:01.944Z,1.73
2018-09-28T07:53:30.443Z,1.57
2018-09-28T07:55:59.034Z,1.70
2018-09-28T07:58:27.540Z,1.30
2018-09-28T08:00:56.125Z,0.80
2018-09-28T08:03:28.432Z,1.43
2018-09-28T08:05:58.108Z,0.90
2018-09-28T08:08:26.618Z,1.87
2018-09-28T08:10:55.138Z,1.93
2018-09-28T08:13:23.625Z,1.40
2018-09-28T08:15:52.158Z,2.07
2018-09-28T08:18:22.129Z,1.50
2018-09-28T08:20:50.957Z,1.33
2018-09-28T08:23:19.583Z,1.13
2018-09-28T08:25:48.105Z,1.40
2018-09-28T08:28:16.597Z,1.10
2018-09-28T08:30:45.121Z,1.37
2018-09-28T08:33:13.619Z,1.23
2018-09-28T08:35:42.151Z,1.50
2018-09-28T08:38:10.653Z,1.73
2018-09-28T08:40:39.174Z,1.20
2018-09-28T08:43:07.678Z,1.30
2018-09-28T08:45:36.190Z,1.40
2018-09-28T08:48:04.691Z,0.80
2018-09-28T08:50:33.218Z,1.20
2018-09-28T08:53:01.717Z,1.70
2018-09-28T08:55:30.248Z,1.33
2018-09-28T08:57:58.757Z,1.50
2018-09-28T09:00:27.282Z,1.67
2018-09-28T09:02:55.785Z,1.77
2018-09-28T09:05:24.348Z,1.43
2018-09-28T09:07:52.854Z,1.30
2018-09-28T09:10:21.376Z,2.10
2018-09-28T09:12:49.915Z,1.63
2018-09-28T09:15:18.462Z,1.10
2018-09-28T09:17:47.040Z,1.23
2018-09-28T09:20:15.559Z,1.10
2018-09-28T09:22:44.093Z,1.00
2018-09-28T09:25:12.603Z,1.50
2018-09-28T09:27:41.133Z,1.10
2018-09-28T09:30:09.697Z,1.17
2018-09-28T09:32:38.205Z,1.30
2018-09-28T09:35:06.755Z,1.50
2018-09-28T09:37:35.283Z,1.40
2018-09-28T09:40:03.810Z,1.00
2018-09-28T09:42:32.384Z,1.33
2018-09-28T09:45:00.872Z,0.80
2018-09-28T09:47:29.410Z,0.80
2018-09-28T09:49:58.063Z,1.83
2018-09-28T09:52:26.616Z,1.30
2018-09-28T09:54:55.126Z,0.93
2018-09-28T09:57:23.649Z,1.00
2018-09-28T09:59:52.153Z,1.27
2018-09-28T10:02:26.030Z,1.20
2018-09-28T10:04:54.528Z,1.50
2018-09-28T10:07:23.145Z,1.20
2018-09-28T10:09:51.629Z,1.23
2018-09-28T10:12:20.245Z,1.00
2018-09-28T10:14:48.681Z,1.40
2018-09-28T10:17:17.210Z,0.70
2018-09-28T10:19:45.811Z,1.10
2018-09-28T10:22:14.318Z,1.43
2018-09-28T10:24:42.835Z,1.10
2018-09-28T10:27:11.418Z,0.83
2018-09-28T10:29:40.139Z,1.30
2018-09-28T10:32:08.967Z,1.30
2018-09-28T10:34:37.508Z,1.00
2018-09-28T10:37:06.045Z,1.40
2018-09-28T10:39:34.598Z,0.90
2018-09-28T10:42:03.104Z,1.20
2018-09-28T10:44:31.611Z,1.43
2018-09-28T10:47:00.138Z,0.80
2018-09-28T10:49:28.626Z,1.03
2018-09-28T10:51:57.255Z,1.40
2018-09-28T10:54:25.672Z,1.20
2018-09-28T10:56:54.186Z,1.20
2018-09-28T10:59:22.727Z,1.23
2018-09-28T11:01:51.249Z,1.20
2018-09-28T11:04:19.894Z,1.67
2018-09-28T11:06:48.436Z,0.87
2018-09-28T11:09:16.967Z,0.80
2018-09-28T11:11:45.463Z,0.90
2018-09-28T11:14:13.981Z,1.60
2018-09-28T11:16:42.486Z,1.07
2018-09-28T11:19:11.025Z,0.80
2018-09-28T11:21:39.579Z,0.77
2018-09-28T11:24:08.085Z,1.10
2018-09-28T11:26:36.577Z,0.93
2018-09-28T11:29:05.102Z,1.50
2018-09-28T11:31:33.585Z,1.57
2018-09-28T11:34:02.134Z,1.23
2018-09-28T11:36:30.702Z,1.00
2018-09-28T11:38:59.232Z,1.07
2018-09-28T11:41:27.722Z,0.83
2018-09-28T11:43:56.258Z,1.00
2018-09-28T11:46:24.787Z,0.93
2018-09-28T11:48:53.384Z,1.10
2018-09-28T11:51:21.948Z,0.80
2018-09-28T11:53:50.486Z,0.80
2018-09-28T11:56:19.034Z,1.00
2018-09-28T11:58:47.590Z,1.20
2018-09-28T12:01:16.131Z,0.80
2018-09-28T12:03:44.757Z,0.93
2018-09-28T12:06:13.303Z,1.00
2018-09-28T12:08:41.848Z,1.00
2018-09-28T12:11:10.375Z,0.80
2018-09-28T12:13:38.896Z,0.80
2018-09-28T12:16:07.500Z,0.83
2018-09-28T12:18:36.022Z,0.90
2018-09-28T12:21:04.532Z,1.20
2018-09-28T12:23:33.061Z,1.00
2018-09-28T12:26:01.661Z,1.23
2018-09-28T12:28:30.191Z,0.83
2018-09-28T12:30:58.737Z,0.93
2018-09-28T12:33:27.691Z,1.00
2018-09-28T12:35:56.231Z,1.17
2018-09-28T12:38:24.786Z,1.10
2018-09-28T12:40:53.321Z,0.73
2018-09-28T12:43:35.032Z,0.73
2018-09-28T12:47:15.506Z,0.90
2018-09-28T12:49:44.057Z,0.50
2018-09-28T12:52:12.554Z,1.10
2018-09-28T12:54:41.149Z,0.70
2018-09-28T12:57:09.634Z,1.00
2018-09-28T12:59:38.178Z,1.00
2018-09-28T13:02:06.820Z,1.73
2018-09-28T13:04:35.358Z,0.90
2018-09-28T13:07:03.865Z,0.80
2018-09-28T13:09:32.394Z,0.70
2018-09-28T13:12:00.889Z,0.87
2018-09-28T13:14:29.460Z,1.07
2018-09-28T13:17:00.931Z,1.20
2018-09-28T13:19:29.453Z,0.97
2018-09-28T13:21:57.949Z,1.03
2018-09-28T13:24:26.513Z,0.70
2018-09-28T13:26:54.992Z,1.13
2018-09-28T13:29:23.518Z,1.10
2018-09-28T13:31:52.054Z,1.17
2018-09-28T13:34:27.265Z,0.90
2018-09-28T13:36:55.770Z,0.90
2018-09-28T13:39:24.292Z,0.70
2018-09-28T13:41:52.785Z,1.17
2018-09-28T13:44:21.344Z,0.80
2018-09-28T13:46:49.894Z,0.93
2018-09-28T13:49:18.390Z,0.80
2018-09-28T13:51:46.904Z,2.50
2018-09-28T13:54:15.492Z,1.20
2018-09-28T13:56:44.017Z,0.80
2018-09-28T13:59:12.561Z,0.90
2018-09-28T14:01:41.155Z,0.70
2018-09-28T14:04:09.719Z,0.70
2018-09-28T14:06:38.264Z,1.00
2018-09-28T14:09:08.956Z,0.87
2018-09-28T14:11:37.463Z,0.67
2018-09-28T14:14:06.019Z,0.60
2018-09-28T14:16:34.562Z,1.00
2018-09-28T14:19:03.095Z,0.70
2018-09-28T14:21:31.602Z,1.00
2018-09-28T14:24:00.135Z,0.90
2018-09-28T14:26:28.661Z,0.87
2018-09-28T14:28:57.212Z,1.00
2018-09-28T14:31:25.734Z,0.80
2018-09-28T14:33:54.258Z,0.87
2018-09-28T14:36:23.259Z,0.90
2018-09-28T14:38:51.720Z,0.70
2018-09-28T14:41:20.253Z,0.70
2018-09-28T14:43:48.747Z,1.10
2018-09-28T14:46:17.320Z,0.80
2018-09-28T14:48:45.946Z,0.87
2018-09-28T14:51:14.382Z,0.70
2018-09-28T14:53:42.881Z,1.00
2018-09-28T14:56:11.440Z,0.90
2018-09-28T14:58:39.952Z,1.10
2018-09-28T15:01:08.536Z,1.00
2018-09-28T15:03:37.039Z,1.10
2018-09-28T15:06:05.580Z,0.70
2018-09-28T15:08:34.140Z,0.83
2018-09-28T15:11:02.662Z,1.20
2018-09-28T15:13:31.156Z,0.70
2018-09-28T15:15:59.691Z,0.93
2018-09-28T15:18:28.279Z,0.90
2018-09-28T15:20:56.740Z,0.80
2018-09-28T15:23:25.261Z,1.30
2018-09-28T15:25:53.790Z,0.73
2018-09-28T15:28:22.291Z,1.10
2018-09-28T15:30:50.804Z,0.93
2018-09-28T15:33:19.342Z,0.93
2018-09-28T15:35:47.903Z,1.17
2018-09-28T15:38:17.067Z,1.10
2018-09-28T15:40:45.675Z,0.83
2018-09-28T15:43:14.365Z,1.00
2018-09-28T15:45:42.927Z,0.70
2018-09-28T15:48:11.440Z,1.10
2018-09-28T15:50:40.064Z,0.90
2018-09-28T15:53:08.705Z,0.60
2018-09-28T15:55:37.560Z,0.77
2018-09-28T15:58:06.352Z,1.00
2018-09-28T16:00:35.166Z,1.10
2018-09-28T16:03:03.679Z,0.90
2018-09-28T16:05:32.202Z,0.80
2018-09-28T16:08:00.830Z,0.90
2018-09-28T16:10:29.354Z,1.57
2018-09-28T16:12:57.950Z,1.00
2018-09-28T16:15:26.468Z,0.70
2018-09-28T16:17:55.070Z,1.20
2018-09-28T16:20:23.585Z,1.20
2018-09-28T16:22:52.082Z,1.20
2018-09-28T16:25:20.614Z,1.40
2018-09-28T16:27:49.106Z,1.10
2018-09-28T16:30:17.611Z,1.30
2018-09-28T16:32:46.166Z,1.10
2018-09-28T16:35:15.522Z,1.17
2018-09-28T16:37:44.045Z,0.70
2018-09-28T16:40:12.568Z,1.07
2018-09-28T16:42:41.100Z,1.03
2018-09-28T16:45:09.599Z,1.60
2018-09-28T16:47:38.184Z,1.30
2018-09-28T16:50:06.837Z,1.10
2018-09-28T16:52:35.441Z,0.90
2018-09-28T16:55:03.951Z,1.20
2018-09-28T16:57:32.468Z,0.90
2018-09-28T17:00:00.989Z,1.67
2018-09-28T17:02:29.546Z,1.50
2018-09-28T17:04:58.039Z,2.00
2018-09-28T17:07:26.562Z,1.60
2018-09-28T17:09:55.066Z,1.33
2018-09-28T17:12:23.591Z,1.30
2018-09-28T17:14:52.093Z,1.03
2018-09-28T17:17:20.619Z,1.00
2018-09-28T17:19:49.144Z,1.20
2018-09-28T17:22:17.745Z,1.40
2018-09-28T17:24:46.258Z,1.10
2018-09-28T17:27:14.783Z,1.50
2018-09-28T17:29:43.302Z,1.50
2018-09-28T17:32:11.845Z,1.60
2018-09-28T17:34:40.355Z,2.00
2018-09-28T17:37:08.896Z,2.43
2018-09-28T17:39:37.409Z,2.60
2018-09-28T17:42:05.934Z,2.40
2018-09-28T17:44:37.262Z,2.10
2018-09-28T17:47:05.811Z,3.00
2018-09-28T17:49:34.316Z,3.00
2018-09-28T17:52:02.858Z,1.97
2018-09-28T17:54:31.395Z,2.40
2018-09-28T17:56:59.937Z,1.60
2018-09-28T17:59:28.470Z,1.73
2018-09-28T18:01:57.049Z,1.47
2018-09-28T18:04:25.575Z,1.33
2018-09-28T18:06:54.124Z,1.50
2018-09-28T18:09:22.637Z,1.50
2018-09-28T18:11:51.985Z,1.80
2018-09-28T18:14:20.644Z,1.83
2018-09-28T18:16:49.209Z,1.30
2018-09-28T18:19:17.705Z,2.10
2018-09-28T18:21:46.301Z,1.63
2018-09-28T18:24:14.806Z,1.33
2018-09-28T18:26:43.396Z,1.40
2018-09-28T18:29:11.997Z,1.20
2018-09-28T18:31:40.550Z,1.23
2018-09-28T18:34:09.109Z,1.40
2018-09-28T18:36:37.644Z,1.40
2018-09-28T18:39:08.296Z,1.43
2018-09-28T18:41:36.961Z,1.03
2018-09-28T18:44:05.536Z,1.10
2018-09-28T18:46:34.040Z,1.27
2018-09-28T18:49:02.675Z,1.40
2018-09-28T18:51:31.194Z,1.33
2018-09-28T18:53:59.706Z,1.23
2018-09-28T18:56:28.211Z,1.60
2018-09-28T18:58:56.758Z,1.60
2018-09-28T19:01:25.264Z,1.30
2018-09-28T19:03:53.801Z,1.37
2018-09-28T19:06:22.322Z,1.57
2018-09-28T19:08:50.926Z,1.10
2018-09-28T19:11:19.433Z,1.23
2018-09-28T19:13:47.999Z,1.30
2018-09-28T19:16:16.506Z,1.30
2018-09-28T19:18:45.040Z,1.67
2018-09-28T19:21:13.586Z,1.40
2018-09-28T19:23:45.849Z,1.50
2018-09-28T19:26:14.359Z,1.10
2018-09-28T19:28:42.881Z,1.20
2018-09-28T19:31:11.387Z,1.40
2018-09-28T19:33:39.927Z,1.60
2018-09-28T19:36:08.755Z,1.10
2018-09-28T19:38:37.273Z,1.20
2018-09-28T19:41:05.862Z,1.50
2018-09-28T19:43:34.392Z,1.90
2018-09-28T19:46:03.024Z,1.83
2018-09-28T19:48:31.537Z,1.00
2018-09-28T19:51:00.052Z,1.60
2018-09-28T19:53:28.976Z,1.30
2018-09-28T19:55:57.554Z,2.03
2018-09-28T19:58:26.085Z,1.30
2018-09-28T20:00:54.593Z,1.20
2018-09-28T20:03:23.122Z,1.53
2018-09-28T20:05:51.635Z,1.50
2018-09-28T20:08:20.171Z,1.43
2018-09-28T20:10:48.692Z,1.13
2018-09-28T20:13:17.334Z,1.37
2018-09-28T20:15:45.980Z,1.60
2018-09-28T20:18:14.718Z,1.40
2018-09-28T20:20:43.326Z,1.20
2018-09-28T20:23:11.841Z,1.63
2018-09-28T20:25:40.332Z,1.80
2018-09-28T20:28:09.099Z,1.70
2018-09-28T20:30:37.760Z,1.67
2018-09-28T20:33:06.026Z,1.60
2018-09-28T20:35:34.542Z,1.80
2018-09-28T20:38:03.043Z,1.33
2018-09-28T20:40:31.583Z,1.97
2018-09-28T20:43:00.089Z,1.27
2018-09-28T20:45:28.831Z,1.30
2018-09-28T20:47:57.322Z,1.33
2018-09-28T20:50:25.867Z,1.47
2018-09-28T20:52:54.378Z,1.53
2018-09-28T20:55:22.936Z,1.63
2018-09-28T20:57:51.442Z,1.90
2018-09-28T21:00:19.998Z,1.80
2018-09-28T21:02:48.481Z,1.17
2018-09-28T21:05:17.005Z,2.27
2018-09-28T21:07:45.501Z,2.70
2018-09-28T21:10:14.022Z,1.23
2018-09-28T21:12:42.509Z,1.30
2018-09-28T21:15:11.035Z,1.63
2018-09-28T21:17:39.529Z,1.70
2018-09-28T21:20:08.078Z,1.73
2018-09-28T21:22:36.584Z,1.60
2018-09-28T21:25:05.140Z,1.40
2018-09-28T21:27:33.655Z,2.03
2018-09-28T21:30:02.471Z,1.93
2018-09-28T21:32:30.994Z,1.33
2018-09-28T21:34:59.524Z,1.73
2018-09-28T21:37:28.026Z,2.30
2018-09-28T21:39:56.556Z,1.70
2018-09-28T21:42:25.038Z,1.63
2018-09-28T21:44:53.559Z,1.60
2018-09-28T21:47:22.054Z,1.73
2018-09-28T21:49:50.601Z,1.57
2018-09-28T21:52:19.105Z,1.73
2018-09-28T21:54:47.626Z,1.90
2018-09-28T21:57:16.122Z,1.20
2018-09-28T21:59:44.639Z,1.60
2018-09-28T22:02:13.131Z,1.83
2018-09-28T22:04:41.716Z,1.80
2018-09-28T22:07:10.231Z,1.57
2018-09-28T22:09:38.757Z,1.53
2018-09-28T22:12:07.249Z,1.23
2018-09-28T22:14:35.841Z,1.40
2018-09-28T22:17:04.345Z,1.83
2018-09-28T22:19:32.875Z,1.60
2018-09-28T22:22:01.416Z,1.67
2018-09-28T22:24:29.946Z,1.83
2018-09-28T22:26:58.674Z,1.50
2018-09-28T22:29:27.205Z,2.23
2018-09-28T22:31:55.694Z,1.50
2018-09-28T22:34:24.245Z,2.00
2018-09-28T22:36:52.802Z,1.57
2018-09-28T22:39:21.294Z,1.80
2018-09-28T22:41:49.824Z,1.20
2018-09-28T22:44:18.331Z,1.60
2018-09-28T22:46:46.870Z,2.10
2018-09-28T22:49:15.369Z,1.70
2018-09-28T22:51:43.883Z,1.70
2018-09-28T22:54:12.414Z,1.33
2018-09-28T22:56:40.932Z,1.73
2018-09-28T22:59:09.453Z,1.90
2018-09-28T23:01:39.242Z,1.70
2018-09-28T23:04:08.854Z,1.70
2018-09-28T23:06:37.409Z,1.77
2018-09-28T23:09:06.952Z,1.77
2018-09-28T23:11:35.485Z,2.00
2018-09-28T23:14:04.001Z,1.70
2018-09-28T23:16:32.608Z,2.20
2018-09-28T23:19:01.166Z,1.87
2018-09-28T23:21:30.026Z,1.60
2018-09-28T23:23:58.529Z,1.60
2018-09-28T23:26:27.092Z,1.83
2018-09-28T23:28:55.601Z,1.60
2018-09-28T23:31:24.199Z,1.50
2018-09-28T23:33:52.719Z,1.80
2018-09-28T23:36:21.278Z,1.53
2018-09-28T23:38:49.782Z,1.53
2018-09-28T23:41:18.393Z,1.73
2018-09-28T23:43:46.882Z,1.80
2018-09-28T23:46:15.411Z,1.87
2018-09-28T23:48:43.933Z,2.47
2018-09-28T23:51:12.482Z,1.60
2018-09-28T23:53:40.984Z,2.73
2018-09-28T23:56:09.510Z,2.30
2018-09-28T23:58:38.002Z,1.70
